sensor_id;sensor_type;location;lat;lon;timestamp;P1;durP1;ratioP1;P2;durP2;ratioP2
47589;SDS011;33316;52.298;9.056;2023-01-04T00:02:03;1.42;;;0.63;;
47589;SDS011;33316;52.298;9.056;2023-01-04T00:04:29;1.33;;;0.73;;
47589;SDS011;33316;52.298;9.056;2023-01-04T00:06:56;1.58;;;0.85;;
47589;SDS011;33316;52.298;9.056;2023-01-04T00:09:23;2.85;;;0.70;;
47589;SDS011;33316;52.298;9.056;2023-01-04T00:11:51;1.80;;;0.80;;
47589;SDS011;33316;52.298;9.056;2023-01-04T00:14:17;1.10;;;0.60;;
47589;SDS011;33316;52.298;9.056;2023-01-04T00:16:45;1.80;;;0.77;;
47589;SDS011;33316;52.298;9.056;2023-01-04T00:19:11;2.22;;;0.80;;
47589;SDS011;33316;52.298;9.056;2023-01-04T00:21:38;1.95;;;0.90;;
47589;SDS011;33316;52.298;9.056;2023-01-04T00:24:05;1.70;;;0.80;;
47589;SDS011;33316;52.298;9.056;2023-01-04T00:26:33;1.88;;;0.70;;
47589;SDS011;33316;52.298;9.056;2023-01-04T00:29:02;5.93;;;0.80;;
47589;SDS011;33316;52.298;9.056;2023-01-04T00:31:30;1.50;;;0.73;;
47589;SDS011;33316;52.298;9.056;2023-01-04T00:33:59;2.92;;;0.80;;
47589;SDS011;33316;52.298;9.056;2023-01-04T00:36:27;1.95;;;0.80;;
47589;SDS011;33316;52.298;9.056;2023-01-04T00:38:54;1.60;;;0.80;;
47589;SDS011;33316;52.298;9.056;2023-01-04T00:41:37;2.55;;;0.93;;
47589;SDS011;33316;52.298;9.056;2023-01-04T00:44:07;1.85;;;0.77;;
47589;SDS011;33316;52.298;9.056;2023-01-04T00:46:35;1.70;;;0.77;;
47589;SDS011;33316;52.298;9.056;2023-01-04T00:49:03;3.92;;;1.15;;
47589;SDS011;33316;52.298;9.056;2023-01-04T00:51:31;2.70;;;0.70;;
47589;SDS011;33316;52.298;9.056;2023-01-04T00:53:59;2.05;;;0.80;;
47589;SDS011;33316;52.298;9.056;2023-01-04T00:56:27;1.98;;;0.80;;
47589;SDS011;33316;52.298;9.056;2023-01-04T00:58:57;1.92;;;0.80;;
47589;SDS011;33316;52.298;9.056;2023-01-04T01:03:57;1.80;;;0.80;;
47589;SDS011;33316;52.298;9.056;2023-01-04T01:06:25;3.83;;;0.90;;
47589;SDS011;33316;52.298;9.056;2023-01-04T01:08:52;2.83;;;0.90;;
47589;SDS011;33316;52.298;9.056;2023-01-04T01:11:20;2.60;;;0.70;;
47589;SDS011;33316;52.298;9.056;2023-01-04T01:13:47;4.72;;;0.90;;
47589;SDS011;33316;52.298;9.056;2023-01-04T01:16:14;1.42;;;0.90;;
47589;SDS011;33316;52.298;9.056;2023-01-04T01:18:44;2.45;;;0.68;;
47589;SDS011;33316;52.298;9.056;2023-01-04T01:21:11;2.90;;;0.75;;
47589;SDS011;33316;52.298;9.056;2023-01-04T01:23:39;2.17;;;0.63;;
47589;SDS011;33316;52.298;9.056;2023-01-04T01:26:09;2.25;;;0.75;;
47589;SDS011;33316;52.298;9.056;2023-01-04T01:28:38;2.60;;;0.80;;
47589;SDS011;33316;52.298;9.056;2023-01-04T01:31:05;1.10;;;0.70;;
47589;SDS011;33316;52.298;9.056;2023-01-04T01:33:34;1.90;;;0.70;;
47589;SDS011;33316;52.298;9.056;2023-01-04T01:36:02;1.83;;;0.82;;
47589;SDS011;33316;52.298;9.056;2023-01-04T01:38:30;1.55;;;0.70;;
47589;SDS011;33316;52.298;9.056;2023-01-04T01:40:57;3.55;;;0.98;;
47589;SDS011;33316;52.298;9.056;2023-01-04T01:46:12;2.25;;;0.68;;
47589;SDS011;33316;52.298;9.056;2023-01-04T01:48:41;1.35;;;0.77;;
47589;SDS011;33316;52.298;9.056;2023-01-04T01:51:09;1.65;;;0.80;;
47589;SDS011;33316;52.298;9.056;2023-01-04T01:53:38;1.45;;;0.80;;
47589;SDS011;33316;52.298;9.056;2023-01-04T01:56:08;1.88;;;0.80;;
47589;SDS011;33316;52.298;9.056;2023-01-04T01:58:36;2.15;;;1.00;;
47589;SDS011;33316;52.298;9.056;2023-01-04T02:01:06;3.92;;;0.75;;
47589;SDS011;33316;52.298;9.056;2023-01-04T02:03:34;1.75;;;0.77;;
47589;SDS011;33316;52.298;9.056;2023-01-04T02:06:04;3.50;;;0.90;;
47589;SDS011;33316;52.298;9.056;2023-01-04T02:08:35;1.70;;;0.88;;
47589;SDS011;33316;52.298;9.056;2023-01-04T02:11:04;4.65;;;1.13;;
47589;SDS011;33316;52.298;9.056;2023-01-04T02:13:31;2.88;;;0.88;;
47589;SDS011;33316;52.298;9.056;2023-01-04T02:16:16;2.08;;;0.77;;
47589;SDS011;33316;52.298;9.056;2023-01-04T02:18:49;2.72;;;0.70;;
47589;SDS011;33316;52.298;9.056;2023-01-04T02:21:21;1.42;;;0.60;;
47589;SDS011;33316;52.298;9.056;2023-01-04T02:26:58;1.65;;;0.70;;
47589;SDS011;33316;52.298;9.056;2023-01-04T02:29:57;1.98;;;0.80;;
47589;SDS011;33316;52.298;9.056;2023-01-04T02:33:16;1.00;;;0.80;;
47589;SDS011;33316;52.298;9.056;2023-01-04T02:35:55;2.05;;;0.60;;
47589;SDS011;33316;52.298;9.056;2023-01-04T02:38:40;3.28;;;0.82;;
47589;SDS011;33316;52.298;9.056;2023-01-04T02:41:15;1.80;;;0.70;;
47589;SDS011;33316;52.298;9.056;2023-01-04T02:43:51;3.45;;;0.90;;
47589;SDS011;33316;52.298;9.056;2023-01-04T02:46:39;2.05;;;0.82;;
47589;SDS011;33316;52.298;9.056;2023-01-04T02:49:10;3.00;;;0.77;;
47589;SDS011;33316;52.298;9.056;2023-01-04T02:51:54;2.10;;;0.80;;
47589;SDS011;33316;52.298;9.056;2023-01-04T02:54:22;1.38;;;0.70;;
47589;SDS011;33316;52.298;9.056;2023-01-04T02:56:58;1.70;;;0.70;;
47589;SDS011;33316;52.298;9.056;2023-01-04T02:59:39;0.60;;;0.50;;
47589;SDS011;33316;52.298;9.056;2023-01-04T03:02:20;2.33;;;0.80;;
47589;SDS011;33316;52.298;9.056;2023-01-04T03:05:17;1.90;;;0.73;;
47589;SDS011;33316;52.298;9.056;2023-01-04T03:08:21;2.55;;;0.80;;
47589;SDS011;33316;52.298;9.056;2023-01-04T03:10:55;3.10;;;0.90;;
47589;SDS011;33316;52.298;9.056;2023-01-04T03:13:28;0.80;;;0.63;;
47589;SDS011;33316;52.298;9.056;2023-01-04T03:16:00;2.85;;;0.90;;
47589;SDS011;33316;52.298;9.056;2023-01-04T03:18:34;1.10;;;0.60;;
47589;SDS011;33316;52.298;9.056;2023-01-04T03:21:05;2.05;;;0.70;;
47589;SDS011;33316;52.298;9.056;2023-01-04T03:23:35;2.20;;;0.88;;
47589;SDS011;33316;52.298;9.056;2023-01-04T03:26:22;1.70;;;0.70;;
47589;SDS011;33316;52.298;9.056;2023-01-04T03:29:12;2.00;;;0.70;;
47589;SDS011;33316;52.298;9.056;2023-01-04T03:32:01;1.85;;;0.80;;
47589;SDS011;33316;52.298;9.056;2023-01-04T03:34:49;2.85;;;0.70;;
47589;SDS011;33316;52.298;9.056;2023-01-04T03:37:36;1.40;;;0.70;;
47589;SDS011;33316;52.298;9.056;2023-01-04T03:40:17;1.55;;;0.52;;
47589;SDS011;33316;52.298;9.056;2023-01-04T03:43:06;2.83;;;0.65;;
47589;SDS011;33316;52.298;9.056;2023-01-04T03:45:56;2.78;;;0.73;;
47589;SDS011;33316;52.298;9.056;2023-01-04T03:48:47;2.90;;;0.50;;
47589;SDS011;33316;52.298;9.056;2023-01-04T03:51:21;1.63;;;0.60;;
47589;SDS011;33316;52.298;9.056;2023-01-04T03:53:54;1.58;;;0.60;;
47589;SDS011;33316;52.298;9.056;2023-01-04T03:56:23;4.20;;;1.05;;
47589;SDS011;33316;52.298;9.056;2023-01-04T03:58:53;2.40;;;0.80;;
47589;SDS011;33316;52.298;9.056;2023-01-04T04:01:20;2.25;;;0.75;;
47589;SDS011;33316;52.298;9.056;2023-01-04T04:03:49;1.27;;;0.60;;
47589;SDS011;33316;52.298;9.056;2023-01-04T04:06:33;1.42;;;0.60;;
47589;SDS011;33316;52.298;9.056;2023-01-04T04:09:19;2.13;;;0.70;;
47589;SDS011;33316;52.298;9.056;2023-01-04T04:11:46;1.77;;;0.65;;
47589;SDS011;33316;52.298;9.056;2023-01-04T04:14:12;0.98;;;0.50;;
47589;SDS011;33316;52.298;9.056;2023-01-04T04:16:40;1.13;;;0.50;;
47589;SDS011;33316;52.298;9.056;2023-01-04T04:19:06;0.50;;;0.50;;
47589;SDS011;33316;52.298;9.056;2023-01-04T04:21:33;1.95;;;0.75;;
47589;SDS011;33316;52.298;9.056;2023-01-04T04:24:00;1.95;;;0.60;;
47589;SDS011;33316;52.298;9.056;2023-01-04T04:26:28;0.80;;;0.60;;
47589;SDS011;33316;52.298;9.056;2023-01-04T04:28:55;0.90;;;0.50;;
47589;SDS011;33316;52.298;9.056;2023-01-04T04:31:21;1.58;;;0.63;;
47589;SDS011;33316;52.298;9.056;2023-01-04T04:33:48;1.85;;;0.52;;
47589;SDS011;33316;52.298;9.056;2023-01-04T04:36:15;3.58;;;0.60;;
47589;SDS011;33316;52.298;9.056;2023-01-04T04:38:42;1.88;;;0.60;;
47589;SDS011;33316;52.298;9.056;2023-01-04T04:41:10;2.85;;;0.60;;
47589;SDS011;33316;52.298;9.056;2023-01-04T04:43:57;0.75;;;0.50;;
47589;SDS011;33316;52.298;9.056;2023-01-04T04:46:24;1.15;;;0.50;;
47589;SDS011;33316;52.298;9.056;2023-01-04T04:48:50;1.00;;;0.60;;
47589;SDS011;33316;52.298;9.056;2023-01-04T04:51:17;1.30;;;0.70;;
47589;SDS011;33316;52.298;9.056;2023-01-04T04:53:44;0.95;;;0.52;;
47589;SDS011;33316;52.298;9.056;2023-01-04T04:56:11;1.15;;;0.40;;
47589;SDS011;33316;52.298;9.056;2023-01-04T04:58:38;2.42;;;0.63;;
47589;SDS011;33316;52.298;9.056;2023-01-04T05:01:06;0.63;;;0.50;;
47589;SDS011;33316;52.298;9.056;2023-01-04T05:03:33;1.58;;;0.68;;
47589;SDS011;33316;52.298;9.056;2023-01-04T05:06:00;1.08;;;0.40;;
47589;SDS011;33316;52.298;9.056;2023-01-04T05:08:27;0.45;;;0.40;;
47589;SDS011;33316;52.298;9.056;2023-01-04T05:10:54;0.57;;;0.50;;
47589;SDS011;33316;52.298;9.056;2023-01-04T05:13:20;1.33;;;0.60;;
47589;SDS011;33316;52.298;9.056;2023-01-04T05:15:47;0.77;;;0.40;;
47589;SDS011;33316;52.298;9.056;2023-01-04T05:18:17;0.77;;;0.40;;
47589;SDS011;33316;52.298;9.056;2023-01-04T05:20:46;1.80;;;0.50;;
47589;SDS011;33316;52.298;9.056;2023-01-04T05:23:14;2.05;;;0.50;;
47589;SDS011;33316;52.298;9.056;2023-01-04T05:25:42;0.98;;;0.50;;
47589;SDS011;33316;52.298;9.056;2023-01-04T05:28:09;1.42;;;0.47;;
47589;SDS011;33316;52.298;9.056;2023-01-04T05:30:36;1.38;;;0.60;;
47589;SDS011;33316;52.298;9.056;2023-01-04T05:33:21;2.22;;;0.50;;
47589;SDS011;33316;52.298;9.056;2023-01-04T05:35:49;0.55;;;0.40;;
47589;SDS011;33316;52.298;9.056;2023-01-04T05:38:17;0.88;;;0.63;;
47589;SDS011;33316;52.298;9.056;2023-01-04T05:40:44;1.00;;;0.60;;
47589;SDS011;33316;52.298;9.056;2023-01-04T05:43:11;1.85;;;0.50;;
47589;SDS011;33316;52.298;9.056;2023-01-04T05:45:39;1.60;;;0.60;;
47589;SDS011;33316;52.298;9.056;2023-01-04T05:48:08;1.58;;;0.45;;
47589;SDS011;33316;52.298;9.056;2023-01-04T05:50:36;2.20;;;0.50;;
47589;SDS011;33316;52.298;9.056;2023-01-04T05:53:03;0.88;;;0.40;;
47589;SDS011;33316;52.298;9.056;2023-01-04T05:55:30;1.45;;;0.40;;
47589;SDS011;33316;52.298;9.056;2023-01-04T05:57:57;1.33;;;0.40;;
47589;SDS011;33316;52.298;9.056;2023-01-04T06:00:24;1.10;;;0.45;;
47589;SDS011;33316;52.298;9.056;2023-01-04T06:02:51;0.30;;;0.28;;
47589;SDS011;33316;52.298;9.056;2023-01-04T06:05:19;1.55;;;0.32;;
47589;SDS011;33316;52.298;9.056;2023-01-04T06:07:47;0.40;;;0.30;;
47589;SDS011;33316;52.298;9.056;2023-01-04T06:10:14;0.52;;;0.40;;
47589;SDS011;33316;52.298;9.056;2023-01-04T06:12:41;0.65;;;0.30;;
47589;SDS011;33316;52.298;9.056;2023-01-04T06:15:08;0.75;;;0.38;;
47589;SDS011;33316;52.298;9.056;2023-01-04T06:17:36;0.30;;;0.30;;
47589;SDS011;33316;52.298;9.056;2023-01-04T06:20:04;1.08;;;0.30;;
47589;SDS011;33316;52.298;9.056;2023-01-04T06:22:33;1.17;;;0.30;;
47589;SDS011;33316;52.298;9.056;2023-01-04T06:25:01;0.28;;;0.28;;
47589;SDS011;33316;52.298;9.056;2023-01-04T06:27:28;0.50;;;0.40;;
47589;SDS011;33316;52.298;9.056;2023-01-04T06:29:55;0.50;;;0.30;;
47589;SDS011;33316;52.298;9.056;2023-01-04T06:32:22;0.98;;;0.30;;
47589;SDS011;33316;52.298;9.056;2023-01-04T06:34:48;0.43;;;0.38;;
47589;SDS011;33316;52.298;9.056;2023-01-04T06:37:15;0.28;;;0.28;;
47589;SDS011;33316;52.298;9.056;2023-01-04T06:39:42;0.30;;;0.30;;
47589;SDS011;33316;52.298;9.056;2023-01-04T06:42:11;0.13;;;0.13;;
47589;SDS011;33316;52.298;9.056;2023-01-04T06:44:51;1.02;;;0.40;;
47589;SDS011;33316;52.298;9.056;2023-01-04T06:47:18;0.60;;;0.40;;
47589;SDS011;33316;52.298;9.056;2023-01-04T06:49:45;0.50;;;0.30;;
47589;SDS011;33316;52.298;9.056;2023-01-04T06:52:12;0.73;;;0.28;;
47589;SDS011;33316;52.298;9.056;2023-01-04T06:54:38;0.80;;;0.40;;
47589;SDS011;33316;52.298;9.056;2023-01-04T06:57:05;1.65;;;0.60;;
47589;SDS011;33316;52.298;9.056;2023-01-04T06:59:33;1.15;;;0.47;;
47589;SDS011;33316;52.298;9.056;2023-01-04T07:02:00;1.75;;;0.40;;
47589;SDS011;33316;52.298;9.056;2023-01-04T07:04:26;1.23;;;0.40;;
47589;SDS011;33316;52.298;9.056;2023-01-04T07:06:53;1.30;;;0.40;;
47589;SDS011;33316;52.298;9.056;2023-01-04T07:09:21;1.08;;;0.30;;
47589;SDS011;33316;52.298;9.056;2023-01-04T07:11:48;0.63;;;0.30;;
47589;SDS011;33316;52.298;9.056;2023-01-04T07:14:15;0.75;;;0.30;;
47589;SDS011;33316;52.298;9.056;2023-01-04T07:16:43;0.47;;;0.32;;
47589;SDS011;33316;52.298;9.056;2023-01-04T07:19:10;0.50;;;0.30;;
47589;SDS011;33316;52.298;9.056;2023-01-04T07:21:36;0.43;;;0.40;;
47589;SDS011;33316;52.298;9.056;2023-01-04T07:24:03;0.50;;;0.40;;
47589;SDS011;33316;52.298;9.056;2023-01-04T07:26:30;0.40;;;0.38;;
47589;SDS011;33316;52.298;9.056;2023-01-04T07:28:57;1.42;;;0.50;;
47589;SDS011;33316;52.298;9.056;2023-01-04T07:31:44;0.63;;;0.40;;
47589;SDS011;33316;52.298;9.056;2023-01-04T07:34:12;1.65;;;0.30;;
47589;SDS011;33316;52.298;9.056;2023-01-04T07:36:40;0.52;;;0.30;;
47589;SDS011;33316;52.298;9.056;2023-01-04T07:39:06;0.70;;;0.35;;
47589;SDS011;33316;52.298;9.056;2023-01-04T07:41:36;2.00;;;0.40;;
47589;SDS011;33316;52.298;9.056;2023-01-04T07:44:03;0.50;;;0.43;;
47589;SDS011;33316;52.298;9.056;2023-01-04T07:46:31;0.38;;;0.35;;
47589;SDS011;33316;52.298;9.056;2023-01-04T07:48:59;0.70;;;0.50;;
47589;SDS011;33316;52.298;9.056;2023-01-04T07:51:26;0.30;;;0.30;;
47589;SDS011;33316;52.298;9.056;2023-01-04T07:53:52;0.52;;;0.40;;
47589;SDS011;33316;52.298;9.056;2023-01-04T07:56:19;0.57;;;0.25;;
47589;SDS011;33316;52.298;9.056;2023-01-04T07:58:46;0.90;;;0.30;;
47589;SDS011;33316;52.298;9.056;2023-01-04T08:01:14;0.45;;;0.30;;
47589;SDS011;33316;52.298;9.056;2023-01-04T08:03:43;0.40;;;0.40;;
47589;SDS011;33316;52.298;9.056;2023-01-04T08:06:12;1.08;;;0.60;;
47589;SDS011;33316;52.298;9.056;2023-01-04T08:08:40;1.25;;;0.40;;
47589;SDS011;33316;52.298;9.056;2023-01-04T08:11:07;0.63;;;0.38;;
47589;SDS011;33316;52.298;9.056;2023-01-04T08:13:35;0.57;;;0.38;;
47589;SDS011;33316;52.298;9.056;2023-01-04T08:16:03;1.40;;;0.30;;
47589;SDS011;33316;52.298;9.056;2023-01-04T08:18:30;0.40;;;0.38;;
47589;SDS011;33316;52.298;9.056;2023-01-04T08:21:00;0.68;;;0.40;;
47589;SDS011;33316;52.298;9.056;2023-01-04T08:23:29;1.77;;;0.20;;
47589;SDS011;33316;52.298;9.056;2023-01-04T08:26:00;0.28;;;0.28;;
47589;SDS011;33316;52.298;9.056;2023-01-04T08:28:28;0.30;;;0.30;;
47589;SDS011;33316;52.298;9.056;2023-01-04T08:30:54;0.43;;;0.30;;
47589;SDS011;33316;52.298;9.056;2023-01-04T08:33:22;0.98;;;0.40;;
47589;SDS011;33316;52.298;9.056;2023-01-04T08:35:49;1.08;;;0.30;;
47589;SDS011;33316;52.298;9.056;2023-01-04T08:38:15;0.30;;;0.30;;
47589;SDS011;33316;52.298;9.056;2023-01-04T08:40:44;0.45;;;0.45;;
47589;SDS011;33316;52.298;9.056;2023-01-04T08:43:10;0.45;;;0.30;;
47589;SDS011;33316;52.298;9.056;2023-01-04T08:45:37;0.75;;;0.30;;
47589;SDS011;33316;52.298;9.056;2023-01-04T08:48:04;0.80;;;0.50;;
47589;SDS011;33316;52.298;9.056;2023-01-04T08:50:31;0.82;;;0.60;;
47589;SDS011;33316;52.298;9.056;2023-01-04T08:52:57;2.25;;;1.02;;
47589;SDS011;33316;52.298;9.056;2023-01-04T08:55:24;1.02;;;0.70;;
47589;SDS011;33316;52.298;9.056;2023-01-04T08:57:52;0.57;;;0.40;;
47589;SDS011;33316;52.298;9.056;2023-01-04T09:00:19;0.85;;;0.40;;
47589;SDS011;33316;52.298;9.056;2023-01-04T09:02:46;0.43;;;0.40;;
47589;SDS011;33316;52.298;9.056;2023-01-04T09:05:13;0.20;;;0.20;;
47589;SDS011;33316;52.298;9.056;2023-01-04T09:07:40;0.40;;;0.30;;
47589;SDS011;33316;52.298;9.056;2023-01-04T09:10:07;0.30;;;0.30;;
47589;SDS011;33316;52.298;9.056;2023-01-04T09:12:34;0.52;;;0.28;;
47589;SDS011;33316;52.298;9.056;2023-01-04T09:15:02;0.28;;;0.28;;
47589;SDS011;33316;52.298;9.056;2023-01-04T09:17:30;0.35;;;0.30;;
47589;SDS011;33316;52.298;9.056;2023-01-04T09:19:56;0.88;;;0.40;;
47589;SDS011;33316;52.298;9.056;2023-01-04T09:22:23;0.50;;;0.40;;
47589;SDS011;33316;52.298;9.056;2023-01-04T09:24:50;0.50;;;0.40;;
47589;SDS011;33316;52.298;9.056;2023-01-04T09:27:18;1.00;;;0.63;;
47589;SDS011;33316;52.298;9.056;2023-01-04T09:29:47;0.82;;;0.50;;
47589;SDS011;33316;52.298;9.056;2023-01-04T09:32:15;1.95;;;0.60;;
47589;SDS011;33316;52.298;9.056;2023-01-04T09:34:42;1.75;;;0.40;;
47589;SDS011;33316;52.298;9.056;2023-01-04T09:37:09;0.40;;;0.40;;
47589;SDS011;33316;52.298;9.056;2023-01-04T09:39:36;0.40;;;0.40;;
47589;SDS011;33316;52.298;9.056;2023-01-04T09:42:03;0.77;;;0.50;;
47589;SDS011;33316;52.298;9.056;2023-01-04T09:44:38;0.32;;;0.32;;
47589;SDS011;33316;52.298;9.056;2023-01-04T09:47:09;0.35;;;0.30;;
47589;SDS011;33316;52.298;9.056;2023-01-04T09:49:41;0.75;;;0.40;;
47589;SDS011;33316;52.298;9.056;2023-01-04T09:52:13;1.38;;;0.30;;
47589;SDS011;33316;52.298;9.056;2023-01-04T09:54:45;0.40;;;0.30;;
47589;SDS011;33316;52.298;9.056;2023-01-04T09:57:17;0.30;;;0.30;;
47589;SDS011;33316;52.298;9.056;2023-01-04T09:59:49;0.70;;;0.30;;
47589;SDS011;33316;52.298;9.056;2023-01-04T10:02:20;0.30;;;0.20;;
47589;SDS011;33316;52.298;9.056;2023-01-04T10:04:52;0.20;;;0.20;;
47589;SDS011;33316;52.298;9.056;2023-01-04T10:07:21;0.20;;;0.20;;
47589;SDS011;33316;52.298;9.056;2023-01-04T10:09:51;0.50;;;0.30;;
47589;SDS011;33316;52.298;9.056;2023-01-04T10:12:22;0.30;;;0.20;;
47589;SDS011;33316;52.298;9.056;2023-01-04T10:15:02;0.80;;;0.40;;
47589;SDS011;33316;52.298;9.056;2023-01-04T10:17:41;0.77;;;0.28;;
47589;SDS011;33316;52.298;9.056;2023-01-04T10:23:24;0.20;;;0.10;;
47589;SDS011;33316;52.298;9.056;2023-01-04T10:26:03;0.20;;;0.20;;
47589;SDS011;33316;52.298;9.056;2023-01-04T10:28:40;1.25;;;0.30;;
47589;SDS011;33316;52.298;9.056;2023-01-04T10:31:21;0.57;;;0.38;;
47589;SDS011;33316;52.298;9.056;2023-01-04T10:33:54;1.08;;;0.30;;
47589;SDS011;33316;52.298;9.056;2023-01-04T10:36:27;1.20;;;0.60;;
47589;SDS011;33316;52.298;9.056;2023-01-04T10:38:57;1.48;;;0.30;;
47589;SDS011;33316;52.298;9.056;2023-01-04T10:41:26;0.40;;;0.20;;
47589;SDS011;33316;52.298;9.056;2023-01-04T10:44:00;0.30;;;0.30;;
47589;SDS011;33316;52.298;9.056;2023-01-04T10:46:32;0.93;;;0.30;;
47589;SDS011;33316;52.298;9.056;2023-01-04T10:49:06;0.32;;;0.30;;
47589;SDS011;33316;52.298;9.056;2023-01-04T10:51:40;0.95;;;0.57;;
47589;SDS011;33316;52.298;9.056;2023-01-04T10:54:11;0.50;;;0.30;;
47589;SDS011;33316;52.298;9.056;2023-01-04T10:56:45;0.30;;;0.30;;
47589;SDS011;33316;52.298;9.056;2023-01-04T10:59:18;0.60;;;0.32;;
47589;SDS011;33316;52.298;9.056;2023-01-04T11:01:50;1.30;;;0.47;;
47589;SDS011;33316;52.298;9.056;2023-01-04T11:04:22;1.45;;;0.80;;
47589;SDS011;33316;52.298;9.056;2023-01-04T11:06:54;1.20;;;0.90;;
47589;SDS011;33316;52.298;9.056;2023-01-04T11:09:26;0.65;;;0.50;;
47589;SDS011;33316;52.298;9.056;2023-01-04T11:11:58;0.70;;;0.50;;
47589;SDS011;33316;52.298;9.056;2023-01-04T11:14:27;2.50;;;0.50;;
47589;SDS011;33316;52.298;9.056;2023-01-04T11:16:55;0.40;;;0.30;;
47589;SDS011;33316;52.298;9.056;2023-01-04T11:19:26;0.28;;;0.20;;
47589;SDS011;33316;52.298;9.056;2023-01-04T11:21:55;0.20;;;0.20;;
47589;SDS011;33316;52.298;9.056;2023-01-04T11:24:28;0.20;;;0.20;;
47589;SDS011;33316;52.298;9.056;2023-01-04T11:26:57;0.20;;;0.20;;
47589;SDS011;33316;52.298;9.056;2023-01-04T11:29:31;0.40;;;0.30;;
47589;SDS011;33316;52.298;9.056;2023-01-04T11:34:43;0.27;;;0.27;;
47589;SDS011;33316;52.298;9.056;2023-01-04T11:37:25;0.40;;;0.30;;
47589;SDS011;33316;52.298;9.056;2023-01-04T11:43:09;0.57;;;0.30;;
47589;SDS011;33316;52.298;9.056;2023-01-04T11:45:40;0.25;;;0.20;;
47589;SDS011;33316;52.298;9.056;2023-01-04T11:48:20;0.32;;;0.20;;
47589;SDS011;33316;52.298;9.056;2023-01-04T11:50:57;0.30;;;0.30;;
47589;SDS011;33316;52.298;9.056;2023-01-04T11:53:30;0.28;;;0.28;;
47589;SDS011;33316;52.298;9.056;2023-01-04T11:59:08;0.20;;;0.20;;
47589;SDS011;33316;52.298;9.056;2023-01-04T12:01:38;0.47;;;0.30;;
47589;SDS011;33316;52.298;9.056;2023-01-04T12:04:09;0.38;;;0.30;;
47589;SDS011;33316;52.298;9.056;2023-01-04T12:06:40;0.13;;;0.13;;
47589;SDS011;33316;52.298;9.056;2023-01-04T12:09:13;0.20;;;0.20;;
47589;SDS011;33316;52.298;9.056;2023-01-04T12:11:42;0.50;;;0.30;;
47589;SDS011;33316;52.298;9.056;2023-01-04T12:14:16;0.10;;;0.10;;
47589;SDS011;33316;52.298;9.056;2023-01-04T12:16:47;0.20;;;0.20;;
47589;SDS011;33316;52.298;9.056;2023-01-04T12:19:20;0.10;;;0.10;;
47589;SDS011;33316;52.298;9.056;2023-01-04T12:21:48;0.43;;;0.20;;
47589;SDS011;33316;52.298;9.056;2023-01-04T12:24:18;0.20;;;0.20;;
47589;SDS011;33316;52.298;9.056;2023-01-04T12:26:49;0.70;;;0.30;;
47589;SDS011;33316;52.298;9.056;2023-01-04T12:32:37;0.30;;;0.20;;
47589;SDS011;33316;52.298;9.056;2023-01-04T12:45:02;0.30;;;0.30;;
47589;SDS011;33316;52.298;9.056;2023-01-04T12:47:39;0.30;;;0.30;;
47589;SDS011;33316;52.298;9.056;2023-01-04T12:50:25;0.30;;;0.30;;
47589;SDS011;33316;52.298;9.056;2023-01-04T12:52:56;0.82;;;0.40;;
47589;SDS011;33316;52.298;9.056;2023-01-04T12:58:38;0.63;;;0.40;;
47589;SDS011;33316;52.298;9.056;2023-01-04T13:01:08;1.65;;;0.50;;
47589;SDS011;33316;52.298;9.056;2023-01-04T13:03:48;1.13;;;0.43;;
47589;SDS011;33316;52.298;9.056;2023-01-04T13:06:21;1.40;;;0.45;;
47589;SDS011;33316;52.298;9.056;2023-01-04T13:08:50;0.57;;;0.47;;
47589;SDS011;33316;52.298;9.056;2023-01-04T13:11:22;0.60;;;0.50;;
47589;SDS011;33316;52.298;9.056;2023-01-04T13:14:07;0.75;;;0.40;;
47589;SDS011;33316;52.298;9.056;2023-01-04T13:16:42;0.68;;;0.43;;
47589;SDS011;33316;52.298;9.056;2023-01-04T13:19:17;0.70;;;0.52;;
47589;SDS011;33316;52.298;9.056;2023-01-04T13:21:46;0.95;;;0.65;;
47589;SDS011;33316;52.298;9.056;2023-01-04T13:24:18;0.88;;;0.60;;
47589;SDS011;33316;52.298;9.056;2023-01-04T13:26:48;0.55;;;0.50;;
47589;SDS011;33316;52.298;9.056;2023-01-04T13:29:20;1.75;;;0.60;;
47589;SDS011;33316;52.298;9.056;2023-01-04T13:31:51;0.50;;;0.50;;
47589;SDS011;33316;52.298;9.056;2023-01-04T13:34:21;0.70;;;0.57;;
47589;SDS011;33316;52.298;9.056;2023-01-04T13:36:58;1.10;;;0.80;;
47589;SDS011;33316;52.298;9.056;2023-01-04T13:39:39;1.08;;;0.70;;
47589;SDS011;33316;52.298;9.056;2023-01-04T13:42:11;1.55;;;0.70;;
47589;SDS011;33316;52.298;9.056;2023-01-04T13:44:55;1.15;;;0.80;;
47589;SDS011;33316;52.298;9.056;2023-01-04T13:47:51;0.60;;;0.60;;
47589;SDS011;33316;52.298;9.056;2023-01-04T13:50:26;0.52;;;0.50;;
47589;SDS011;33316;52.298;9.056;2023-01-04T13:53:02;1.17;;;0.50;;
47589;SDS011;33316;52.298;9.056;2023-01-04T13:55:30;0.70;;;0.68;;
47589;SDS011;33316;52.298;9.056;2023-01-04T13:57:59;0.80;;;0.80;;
47589;SDS011;33316;52.298;9.056;2023-01-04T14:00:28;0.88;;;0.60;;
47589;SDS011;33316;52.298;9.056;2023-01-04T14:03:03;1.23;;;0.70;;
47589;SDS011;33316;52.298;9.056;2023-01-04T14:05:41;0.70;;;0.70;;
47589;SDS011;33316;52.298;9.056;2023-01-04T14:08:11;1.00;;;0.70;;
47589;SDS011;33316;52.298;9.056;2023-01-04T14:10:43;0.80;;;0.80;;
47589;SDS011;33316;52.298;9.056;2023-01-04T14:13:12;0.68;;;0.65;;
47589;SDS011;33316;52.298;9.056;2023-01-04T14:18:16;0.88;;;0.70;;
47589;SDS011;33316;52.298;9.056;2023-01-04T14:20:51;1.23;;;0.70;;
47589;SDS011;33316;52.298;9.056;2023-01-04T14:23:25;1.30;;;0.80;;
47589;SDS011;33316;52.298;9.056;2023-01-04T14:25:54;0.95;;;0.80;;
47589;SDS011;33316;52.298;9.056;2023-01-04T14:28:30;1.40;;;1.00;;
47589;SDS011;33316;52.298;9.056;2023-01-04T14:31:11;1.00;;;0.90;;
47589;SDS011;33316;52.298;9.056;2023-01-04T14:33:48;1.30;;;1.15;;
47589;SDS011;33316;52.298;9.056;2023-01-04T14:36:17;1.60;;;1.00;;
47589;SDS011;33316;52.298;9.056;2023-01-04T14:38:48;1.10;;;1.00;;
47589;SDS011;33316;52.298;9.056;2023-01-04T14:41:21;1.25;;;1.13;;
47589;SDS011;33316;52.298;9.056;2023-01-04T14:43:50;1.10;;;0.95;;
47589;SDS011;33316;52.298;9.056;2023-01-04T14:46:18;0.98;;;0.98;;
47589;SDS011;33316;52.298;9.056;2023-01-04T14:48:45;1.65;;;0.98;;
47589;SDS011;33316;52.298;9.056;2023-01-04T14:51:15;1.67;;;0.90;;
47589;SDS011;33316;52.298;9.056;2023-01-04T14:53:44;0.73;;;0.73;;
47589;SDS011;33316;52.298;9.056;2023-01-04T14:56:11;3.05;;;1.58;;
47589;SDS011;33316;52.298;9.056;2023-01-04T14:58:39;1.10;;;0.95;;
47589;SDS011;33316;52.298;9.056;2023-01-04T15:01:06;1.63;;;1.00;;
47589;SDS011;33316;52.298;9.056;2023-01-04T15:03:33;2.85;;;1.30;;
47589;SDS011;33316;52.298;9.056;2023-01-04T15:06:00;1.30;;;0.90;;
47589;SDS011;33316;52.298;9.056;2023-01-04T15:08:28;1.15;;;1.05;;
47589;SDS011;33316;52.298;9.056;2023-01-04T15:10:55;1.88;;;0.88;;
47589;SDS011;33316;52.298;9.056;2023-01-04T15:13:22;1.55;;;0.75;;
47589;SDS011;33316;52.298;9.056;2023-01-04T15:15:49;1.27;;;0.93;;
47589;SDS011;33316;52.298;9.056;2023-01-04T15:18:16;2.28;;;1.10;;
47589;SDS011;33316;52.298;9.056;2023-01-04T15:20:43;1.65;;;0.90;;
47589;SDS011;33316;52.298;9.056;2023-01-04T15:23:10;2.63;;;1.10;;
47589;SDS011;33316;52.298;9.056;2023-01-04T15:25:38;2.70;;;1.13;;
47589;SDS011;33316;52.298;9.056;2023-01-04T15:28:05;2.60;;;1.08;;
47589;SDS011;33316;52.298;9.056;2023-01-04T15:30:33;3.10;;;1.80;;
47589;SDS011;33316;52.298;9.056;2023-01-04T15:32:59;2.35;;;1.35;;
47589;SDS011;33316;52.298;9.056;2023-01-04T15:35:26;2.78;;;1.50;;
47589;SDS011;33316;52.298;9.056;2023-01-04T15:37:53;2.92;;;1.20;;
47589;SDS011;33316;52.298;9.056;2023-01-04T15:40:20;2.88;;;1.02;;
47589;SDS011;33316;52.298;9.056;2023-01-04T15:42:48;3.00;;;1.15;;
47589;SDS011;33316;52.298;9.056;2023-01-04T15:45:24;3.00;;;0.95;;
47589;SDS011;33316;52.298;9.056;2023-01-04T15:47:52;3.85;;;1.35;;
47589;SDS011;33316;52.298;9.056;2023-01-04T15:50:21;5.43;;;1.40;;